createdAt,value
2022-10-25T00:01:27.457Z,31.30
2022-10-25T00:03:56.383Z,26.65
2022-10-25T00:06:24.001Z,28.05
2022-10-25T00:08:51.848Z,28.73
2022-10-25T00:11:24.938Z,30.80
2022-10-25T00:13:54.708Z,30.65
2022-10-25T00:16:25.077Z,31.77
2022-10-25T00:18:52.544Z,29.35
2022-10-25T00:21:20.955Z,33.65
2022-10-25T00:23:48.850Z,30.63
2022-10-25T00:26:16.554Z,31.65
2022-10-25T00:28:44.208Z,33.92
2022-10-25T00:31:14.575Z,30.98
2022-10-25T00:33:43.348Z,34.70
2022-10-25T00:36:28.771Z,33.30
2022-10-25T00:38:58.599Z,33.35
2022-10-25T00:41:29.891Z,33.03
2022-10-25T00:44:35.530Z,35.67
2022-10-25T00:47:10.940Z,36.50
2022-10-25T00:49:38.506Z,33.90
2022-10-25T00:52:07.829Z,35.53
2022-10-25T00:54:42.818Z,36.53
2022-10-25T00:57:21.627Z,34.53
2022-10-25T00:59:49.410Z,33.35
2022-10-25T01:02:18.336Z,34.53
2022-10-25T01:04:46.168Z,34.08
2022-10-25T01:07:13.646Z,36.38
2022-10-25T01:09:42.298Z,39.33
2022-10-25T01:12:09.674Z,40.05
2022-10-25T01:14:42.204Z,41.47
2022-10-25T01:17:36.325Z,43.55
2022-10-25T01:20:29.951Z,45.50
2022-10-25T01:23:19.924Z,47.15
2022-10-25T01:26:10.612Z,45.00
2022-10-25T01:29:05.774Z,45.20
2022-10-25T01:31:38.951Z,47.45
2022-10-25T01:34:17.965Z,43.50
2022-10-25T01:36:48.179Z,45.88
2022-10-25T01:39:20.899Z,49.60
2022-10-25T01:42:06.232Z,47.42
2022-10-25T01:44:45.348Z,47.75
2022-10-25T01:47:21.867Z,45.40
2022-10-25T01:49:57.533Z,47.70
2022-10-25T01:52:25.618Z,46.40
2022-10-25T01:54:53.251Z,46.50
2022-10-25T01:57:49.668Z,44.88
2022-10-25T02:00:19.693Z,45.20
2022-10-25T02:02:58.897Z,45.10
2022-10-25T02:05:28.377Z,44.70
2022-10-25T02:08:08.475Z,46.22
2022-10-25T02:10:40.874Z,43.08
2022-10-25T02:13:20.600Z,46.85
2022-10-25T02:16:00.718Z,45.40
2022-10-25T02:18:33.224Z,45.22
2022-10-25T02:21:02.441Z,44.75
2022-10-25T02:23:31.608Z,42.67
2022-10-25T02:26:00.247Z,43.20
2022-10-25T02:28:30.132Z,41.50
2022-10-25T02:30:58.803Z,39.92
2022-10-25T02:33:26.367Z,41.25
2022-10-25T02:36:14.511Z,39.42
2022-10-25T02:38:43.999Z,38.13
2022-10-25T02:41:12.217Z,33.47
2022-10-25T02:43:39.642Z,29.50
2022-10-25T02:46:12.779Z,24.80
2022-10-25T02:48:40.814Z,21.85
2022-10-25T02:51:09.643Z,22.75
2022-10-25T02:53:37.237Z,18.88
2022-10-25T02:56:13.354Z,20.08
2022-10-25T02:58:42.808Z,19.40
2022-10-25T03:01:11.266Z,20.27
2022-10-25T03:03:39.205Z,19.92
2022-10-25T03:06:07.537Z,19.60
2022-10-25T03:08:35.601Z,20.60
2022-10-25T03:11:03.425Z,21.98
2022-10-25T03:13:31.451Z,21.40
2022-10-25T03:15:58.994Z,21.55
2022-10-25T03:18:26.416Z,23.27
2022-10-25T03:21:00.456Z,23.33
2022-10-25T03:23:29.139Z,24.38
2022-10-25T03:25:58.537Z,23.80
2022-10-25T03:28:27.557Z,25.25
2022-10-25T03:30:56.070Z,26.48
2022-10-25T03:33:24.508Z,24.50
2022-10-25T03:35:55.872Z,25.00
2022-10-25T03:38:23.328Z,25.13
2022-10-25T03:40:50.726Z,24.83
2022-10-25T03:43:18.131Z,25.42
2022-10-25T03:45:45.865Z,24.73
2022-10-25T03:48:13.272Z,25.75
2022-10-25T03:50:41.062Z,25.48
2022-10-25T03:53:09.778Z,24.70
2022-10-25T03:55:37.350Z,25.48
2022-10-25T03:58:04.694Z,22.48
2022-10-25T04:00:32.095Z,24.00
2022-10-25T04:03:02.200Z,24.48
2022-10-25T04:05:30.889Z,25.27
2022-10-25T04:07:59.114Z,24.45
2022-10-25T04:10:27.085Z,23.45
2022-10-25T04:12:55.123Z,24.80
2022-10-25T04:15:24.085Z,25.00
2022-10-25T04:17:52.523Z,23.70
2022-10-25T04:20:20.866Z,24.80
2022-10-25T04:22:57.855Z,22.27
2022-10-25T04:25:27.536Z,22.75
2022-10-25T04:27:55.369Z,22.73
2022-10-25T04:30:22.827Z,23.00
2022-10-25T04:32:50.625Z,23.92
2022-10-25T04:35:18.390Z,21.67
2022-10-25T04:37:45.843Z,24.02
2022-10-25T04:40:13.501Z,23.08
2022-10-25T04:42:41.109Z,24.38
2022-10-25T04:45:09.069Z,23.75
2022-10-25T04:47:36.659Z,21.85
2022-10-25T04:50:04.812Z,22.98
2022-10-25T04:52:32.914Z,22.30
2022-10-25T04:55:00.287Z,21.25
2022-10-25T04:57:27.673Z,21.05
2022-10-25T04:59:57.541Z,20.20
2022-10-25T05:02:25.044Z,22.30
2022-10-25T05:04:52.659Z,39.17
2022-10-25T05:07:20.733Z,21.92
2022-10-25T05:09:48.450Z,21.33
2022-10-25T05:12:16.190Z,19.15
2022-10-25T05:14:44.138Z,20.73
2022-10-25T05:17:11.595Z,19.27
2022-10-25T05:19:39.037Z,19.58
2022-10-25T05:22:06.472Z,19.13
2022-10-25T05:24:34.012Z,20.40
2022-10-25T05:27:01.514Z,19.80
2022-10-25T05:29:28.946Z,19.63
2022-10-25T05:31:56.376Z,20.10
2022-10-25T05:34:23.778Z,16.83
2022-10-25T05:36:51.464Z,18.20
2022-10-25T05:39:18.989Z,17.33
2022-10-25T05:41:46.575Z,17.38
2022-10-25T05:44:14.979Z,20.55
2022-10-25T05:46:43.619Z,17.60
2022-10-25T05:49:11.944Z,17.55
2022-10-25T05:51:39.740Z,17.38
2022-10-25T05:54:12.304Z,18.27
2022-10-25T05:56:40.768Z,17.73
2022-10-25T05:59:10.889Z,16.65
2022-10-25T06:01:43.758Z,18.48
2022-10-25T06:04:12.459Z,19.48
2022-10-25T06:06:41.379Z,20.08
2022-10-25T06:09:09.746Z,18.20
2022-10-25T06:11:38.467Z,18.90
2022-10-25T06:14:06.559Z,20.50
2022-10-25T06:16:34.087Z,19.58
2022-10-25T06:19:01.495Z,21.35
2022-10-25T06:21:30.352Z,20.40
2022-10-25T06:23:59.364Z,17.17
2022-10-25T06:26:29.043Z,17.33
2022-10-25T06:29:01.734Z,14.85
2022-10-25T06:31:29.822Z,11.73
2022-10-25T06:33:59.207Z,7.63
2022-10-25T06:36:27.742Z,7.45
2022-10-25T06:38:55.247Z,7.20
2022-10-25T06:41:28.237Z,6.88
2022-10-25T06:43:55.950Z,14.52
2022-10-25T06:46:33.168Z,5.82
2022-10-25T06:49:02.222Z,4.95
2022-10-25T06:51:29.888Z,5.05
2022-10-25T06:53:59.085Z,5.32
2022-10-25T06:56:27.794Z,5.30
2022-10-25T06:58:56.177Z,5.38
2022-10-25T07:01:25.257Z,6.68
2022-10-25T07:03:54.545Z,5.50
2022-10-25T07:06:27.001Z,4.57
2022-10-25T07:08:56.766Z,4.28
2022-10-25T07:11:25.633Z,5.20
2022-10-25T07:13:53.167Z,5.88
2022-10-25T07:16:21.130Z,9.23
2022-10-25T07:18:51.628Z,9.50
2022-10-25T07:21:23.095Z,13.23
2022-10-25T07:23:51.226Z,12.77
2022-10-25T07:26:22.049Z,15.75
2022-10-25T07:28:51.624Z,14.30
2022-10-25T07:31:25.118Z,13.70
2022-10-25T07:33:53.952Z,14.30
2022-10-25T07:36:21.678Z,14.88
2022-10-25T07:38:50.014Z,14.90
2022-10-25T07:41:17.426Z,15.05
2022-10-25T07:43:44.881Z,14.18
2022-10-25T07:46:15.395Z,13.35
2022-10-25T07:48:42.826Z,14.05
2022-10-25T07:51:15.852Z,12.43
2022-10-25T07:53:43.401Z,12.25
2022-10-25T07:56:18.850Z,12.77
2022-10-25T07:58:50.063Z,12.13
2022-10-25T08:01:25.549Z,12.15
2022-10-25T08:03:53.787Z,11.23
2022-10-25T08:06:23.332Z,11.65
2022-10-25T08:08:51.174Z,11.40
2022-10-25T08:11:19.020Z,11.82
2022-10-25T08:13:49.179Z,11.68
2022-10-25T08:16:16.833Z,10.70
2022-10-25T08:18:44.286Z,11.48
2022-10-25T08:21:11.685Z,10.50
2022-10-25T08:23:39.106Z,10.90
2022-10-25T08:26:06.874Z,12.00
2022-10-25T08:28:34.370Z,10.98
2022-10-25T08:31:04.296Z,10.35
2022-10-25T08:33:33.012Z,7.72
2022-10-25T08:36:02.034Z,7.55
2022-10-25T08:38:29.863Z,7.40
2022-10-25T08:41:19.176Z,6.68
2022-10-25T08:44:09.534Z,6.80
2022-10-25T08:46:42.641Z,5.72
2022-10-25T08:49:24.119Z,6.18
2022-10-25T08:51:54.818Z,6.18
2022-10-25T08:54:29.723Z,4.63
2022-10-25T08:57:24.113Z,3.83
2022-10-25T08:59:55.128Z,4.45
2022-10-25T09:02:34.120Z,4.28
2022-10-25T09:05:01.846Z,3.67
2022-10-25T09:07:44.908Z,5.93
2022-10-25T09:10:18.237Z,4.70
2022-10-25T09:12:55.542Z,4.85
2022-10-25T09:15:39.104Z,4.82
2022-10-25T09:18:17.798Z,5.45
2022-10-25T09:20:50.996Z,4.35
2022-10-25T09:23:32.387Z,5.80
2022-10-25T09:26:08.445Z,4.82
2022-10-25T09:28:51.286Z,5.60
2022-10-25T09:31:24.353Z,5.50
2022-10-25T09:34:04.295Z,4.28
2022-10-25T09:36:57.662Z,4.72
2022-10-25T09:39:40.507Z,5.03
2022-10-25T09:42:21.791Z,5.18
2022-10-25T09:44:54.899Z,5.25
2022-10-25T09:47:43.714Z,5.10
2022-10-25T09:50:50.137Z,5.07
2022-10-25T09:53:21.788Z,6.30
2022-10-25T09:55:57.941Z,6.50
2022-10-25T09:58:30.665Z,7.20
2022-10-25T10:01:04.945Z,5.28
2022-10-25T10:03:35.349Z,4.97
2022-10-25T10:06:09.274Z,5.95
2022-10-25T10:08:47.982Z,5.07
2022-10-25T10:11:20.384Z,5.97
2022-10-25T10:14:09.970Z,5.85
2022-10-25T10:16:53.619Z,5.65
2022-10-25T10:19:26.462Z,6.45
2022-10-25T10:22:07.907Z,4.43
2022-10-25T10:24:40.865Z,4.90
2022-10-25T10:27:25.845Z,6.07
2022-10-25T10:29:58.969Z,4.13
2022-10-25T10:32:29.922Z,5.40
2022-10-25T10:34:58.718Z,6.03
2022-10-25T10:37:31.727Z,6.75
2022-10-25T10:40:07.462Z,6.88
2022-10-25T10:42:42.871Z,8.05
2022-10-25T10:45:18.625Z,5.93
2022-10-25T10:47:51.880Z,8.38
2022-10-25T10:50:25.517Z,5.93
2022-10-25T10:53:03.353Z,6.35
2022-10-25T10:55:52.238Z,7.18
2022-10-25T10:58:25.498Z,5.82
2022-10-25T11:00:56.618Z,5.70
2022-10-25T11:03:45.002Z,7.00
2022-10-25T11:06:29.798Z,6.55
2022-10-25T11:09:19.354Z,7.32
2022-10-25T11:12:14.413Z,6.97
2022-10-25T11:14:41.947Z,7.75
2022-10-25T11:17:18.049Z,7.43
2022-10-25T11:20:04.048Z,8.50
2022-10-25T11:22:56.020Z,8.43
2022-10-25T11:25:34.247Z,8.45
2022-10-25T11:28:09.779Z,8.30
2022-10-25T11:30:59.322Z,9.13
2022-10-25T11:33:54.850Z,7.05
2022-10-25T11:36:55.263Z,6.35
2022-10-25T11:39:28.459Z,6.57
2022-10-25T11:42:19.414Z,7.20
2022-10-25T11:44:52.365Z,8.20
2022-10-25T11:47:44.007Z,7.80
2022-10-25T11:50:19.544Z,6.40
2022-10-25T11:53:01.813Z,7.63
2022-10-25T11:55:48.353Z,6.78
2022-10-25T11:58:21.739Z,5.93
2022-10-25T12:00:52.047Z,5.93
2022-10-25T12:03:30.257Z,7.30
2022-10-25T12:06:12.839Z,8.35
2022-10-25T12:08:54.599Z,7.70
2022-10-25T12:11:28.010Z,9.13
2022-10-25T12:14:01.460Z,8.52
2022-10-25T12:16:30.618Z,5.47
2022-10-25T12:19:13.038Z,6.70
2022-10-25T12:24:20.468Z,7.77
2022-10-25T12:26:50.414Z,8.35
2022-10-25T12:29:42.181Z,7.90
2022-10-25T12:32:17.461Z,9.10
2022-10-25T12:34:55.383Z,9.15
2022-10-25T12:37:22.749Z,9.02
2022-10-25T12:39:51.579Z,10.55
2022-10-25T12:42:23.664Z,9.52
2022-10-25T12:45:33.824Z,7.50
2022-10-25T12:48:16.419Z,8.60
2022-10-25T12:51:18.061Z,6.75
2022-10-25T12:54:20.555Z,7.32
2022-10-25T12:57:11.786Z,7.78
2022-10-25T13:00:03.736Z,9.75
2022-10-25T13:03:02.707Z,9.07
2022-10-25T13:06:07.429Z,11.00
2022-10-25T13:08:35.187Z,9.90
2022-10-25T13:11:06.341Z,10.00
2022-10-25T13:13:39.033Z,9.20
2022-10-25T13:16:09.663Z,8.82
2022-10-25T13:18:45.722Z,9.77
2022-10-25T13:21:37.099Z,9.90
2022-10-25T13:24:04.735Z,9.75
2022-10-25T13:26:33.648Z,11.27
2022-10-25T13:29:39.622Z,10.35
2022-10-25T13:32:19.051Z,9.68
2022-10-25T13:34:47.551Z,8.77
2022-10-25T13:37:33.504Z,10.60
2022-10-25T13:42:47.818Z,11.55
2022-10-25T13:45:32.687Z,8.73
2022-10-25T13:48:15.302Z,11.50
2022-10-25T13:50:55.903Z,9.70
2022-10-25T13:53:48.002Z,9.93
2022-10-25T13:56:24.560Z,10.43
2022-10-25T13:58:56.485Z,10.18
2022-10-25T14:01:26.660Z,8.88
2022-10-25T14:04:02.996Z,8.15
2022-10-25T14:06:34.642Z,9.25
2022-10-25T14:09:20.914Z,16.77
2022-10-25T14:11:54.545Z,9.05
2022-10-25T14:14:36.103Z,10.20
2022-10-25T14:17:40.435Z,9.97
2022-10-25T14:20:30.445Z,8.60
2022-10-25T14:23:01.899Z,8.13
2022-10-25T14:25:41.527Z,8.33
2022-10-25T14:28:22.271Z,9.25
2022-10-25T14:30:53.119Z,8.48
2022-10-25T14:33:36.769Z,8.80
2022-10-25T14:36:08.289Z,8.43
2022-10-25T14:38:49.836Z,8.52
2022-10-25T14:41:30.662Z,8.55
2022-10-25T14:43:58.582Z,9.88
2022-10-25T14:46:27.879Z,9.57
2022-10-25T14:48:57.617Z,8.57
2022-10-25T14:51:32.380Z,7.55
2022-10-25T14:54:05.772Z,7.65
2022-10-25T14:56:50.345Z,7.95
2022-10-25T14:59:28.946Z,9.00
2022-10-25T15:01:58.025Z,8.93
2022-10-25T15:04:40.989Z,10.23
2022-10-25T15:07:29.350Z,8.85
2022-10-25T15:09:58.980Z,7.53
2022-10-25T15:12:34.260Z,9.80
2022-10-25T15:15:44.039Z,9.25
2022-10-25T15:18:26.731Z,9.48
2022-10-25T15:21:17.541Z,9.00
2022-10-25T15:24:33.725Z,8.35
2022-10-25T15:27:03.198Z,9.07
2022-10-25T15:29:42.782Z,9.23
2022-10-25T15:32:13.441Z,9.10
2022-10-25T15:34:43.641Z,8.47
2022-10-25T15:37:12.990Z,7.95
2022-10-25T15:42:15.631Z,7.10
2022-10-25T15:44:43.488Z,10.02
2022-10-25T15:47:23.709Z,6.55
2022-10-25T15:49:54.128Z,7.90
2022-10-25T15:52:21.913Z,6.75
2022-10-25T15:54:49.412Z,9.82
2022-10-25T15:57:17.619Z,7.28
2022-10-25T15:59:45.051Z,8.55
2022-10-25T16:02:27.060Z,7.85
2022-10-25T16:04:54.704Z,7.82
2022-10-25T16:07:22.419Z,8.82
2022-10-25T16:09:49.819Z,8.02
2022-10-25T16:12:25.885Z,8.45
2022-10-25T16:14:53.480Z,8.55
2022-10-25T16:17:20.855Z,7.88
2022-10-25T16:19:48.272Z,9.43
2022-10-25T16:22:17.547Z,7.95
2022-10-25T16:24:45.299Z,9.15
2022-10-25T16:27:13.002Z,8.38
2022-10-25T16:29:40.684Z,5.88
2022-10-25T16:32:08.169Z,7.60
2022-10-25T16:34:35.576Z,7.80
2022-10-25T16:37:04.620Z,7.35
2022-10-25T16:39:33.867Z,7.47
2022-10-25T16:42:03.833Z,9.00
2022-10-25T16:44:31.702Z,8.73
2022-10-25T16:46:59.983Z,15.75
2022-10-25T16:49:33.467Z,12.70
2022-10-25T16:52:00.885Z,9.05
2022-10-25T16:54:28.277Z,8.48
2022-10-25T16:56:55.678Z,5.80
2022-10-25T16:59:23.090Z,6.00
2022-10-25T17:01:55.544Z,7.18
2022-10-25T17:04:26.813Z,6.55
2022-10-25T17:06:54.162Z,5.68
2022-10-25T17:09:21.566Z,7.57
2022-10-25T17:11:48.916Z,6.60
2022-10-25T17:14:16.342Z,6.55
2022-10-25T17:16:44.707Z,7.78
2022-10-25T17:19:12.898Z,7.53
2022-10-25T17:21:40.439Z,7.63
2022-10-25T17:24:09.677Z,7.53
2022-10-25T17:26:38.421Z,6.60
2022-10-25T17:29:05.874Z,8.15
2022-10-25T17:31:33.500Z,8.05
2022-10-25T17:34:01.828Z,6.68
2022-10-25T17:36:31.680Z,7.80
2022-10-25T17:39:00.403Z,7.57
2022-10-25T17:41:28.017Z,8.43
2022-10-25T17:43:57.821Z,6.85
2022-10-25T17:46:29.117Z,7.40
2022-10-25T17:49:05.716Z,7.30
2022-10-25T17:51:35.675Z,6.20
2022-10-25T17:54:03.498Z,6.60
2022-10-25T17:59:01.147Z,7.07
2022-10-25T18:01:32.012Z,5.47
2022-10-25T18:03:59.451Z,6.63
2022-10-25T18:06:27.153Z,7.13
2022-10-25T18:09:03.790Z,7.32
2022-10-25T18:11:31.423Z,6.88
2022-10-25T18:14:00.920Z,6.15
2022-10-25T18:16:31.043Z,7.22
2022-10-25T18:19:00.982Z,7.72
2022-10-25T18:21:28.722Z,7.35
2022-10-25T18:24:01.745Z,7.07
2022-10-25T18:26:29.718Z,7.38
2022-10-25T18:28:58.953Z,7.32
2022-10-25T18:31:27.257Z,6.38
2022-10-25T18:33:55.896Z,6.25
2022-10-25T18:36:23.330Z,7.10
2022-10-25T18:38:51.255Z,6.63
2022-10-25T18:41:27.675Z,7.60
2022-10-25T18:43:56.771Z,7.50
2022-10-25T18:46:25.764Z,7.45
2022-10-25T18:48:54.318Z,8.27
2022-10-25T18:51:24.551Z,8.35
2022-10-25T18:53:56.444Z,9.90
2022-10-25T18:56:27.319Z,9.35
2022-10-25T18:58:56.942Z,9.02
2022-10-25T19:01:32.086Z,10.55
2022-10-25T19:04:01.838Z,9.35
2022-10-25T19:06:30.019Z,9.68
2022-10-25T19:08:57.498Z,8.85
2022-10-25T19:11:24.920Z,10.75
2022-10-25T19:13:56.196Z,9.77
2022-10-25T19:16:24.135Z,10.10
2022-10-25T19:18:51.650Z,10.05
2022-10-25T19:21:19.579Z,10.02
2022-10-25T19:23:47.747Z,10.45
2022-10-25T19:26:18.323Z,11.20
2022-10-25T19:28:46.531Z,10.27
2022-10-25T19:31:16.446Z,11.80
2022-10-25T19:33:48.653Z,10.63
2022-10-25T19:36:17.475Z,10.35
2022-10-25T19:38:45.360Z,10.00
2022-10-25T19:41:18.310Z,12.65
2022-10-25T19:43:46.469Z,10.48
2022-10-25T19:46:15.150Z,11.30
2022-10-25T19:48:42.793Z,10.82
2022-10-25T19:51:13.208Z,10.30
2022-10-25T19:53:40.965Z,10.80
2022-10-25T19:56:10.830Z,11.43
2022-10-25T19:58:38.300Z,10.55
2022-10-25T20:01:10.566Z,10.57
2022-10-25T20:06:20.252Z,11.40
2022-10-25T20:08:51.009Z,12.25
2022-10-25T20:11:18.613Z,10.63
2022-10-25T20:13:46.377Z,11.75
2022-10-25T20:16:14.634Z,11.68
2022-10-25T20:18:42.620Z,10.98
2022-10-25T20:21:16.302Z,12.18
2022-10-25T20:23:49.259Z,12.52
2022-10-25T20:26:23.863Z,11.73
2022-10-25T20:28:56.248Z,12.05
2022-10-25T20:33:52.392Z,11.55
2022-10-25T20:36:19.829Z,12.65
2022-10-25T20:38:47.273Z,13.32
2022-10-25T20:41:20.482Z,12.70
2022-10-25T20:43:59.863Z,11.90
2022-10-25T20:46:29.603Z,11.10
2022-10-25T20:48:58.184Z,12.90
2022-10-25T20:51:26.078Z,10.65
2022-10-25T20:53:53.494Z,12.25
2022-10-25T20:56:22.830Z,11.52
2022-10-25T20:58:50.620Z,10.60
2022-10-25T21:01:18.198Z,12.18
2022-10-25T21:03:45.646Z,11.32
2022-10-25T21:06:14.428Z,13.55
2022-10-25T21:08:42.123Z,12.98
2022-10-25T21:11:12.532Z,12.55
2022-10-25T21:13:40.252Z,12.48
2022-10-25T21:16:13.650Z,11.63
2022-10-25T21:18:42.215Z,12.13
2022-10-25T21:21:15.434Z,11.65
2022-10-25T21:23:42.818Z,12.90
2022-10-25T21:26:10.186Z,11.30
2022-10-25T21:28:39.557Z,12.32
2022-10-25T21:31:14.383Z,21.48
2022-10-25T21:33:50.207Z,13.60
2022-10-25T21:36:20.107Z,12.57
2022-10-25T21:38:47.701Z,12.15
2022-10-25T21:41:26.592Z,11.02
2022-10-25T21:43:54.859Z,12.25
2022-10-25T21:46:23.546Z,11.50
2022-10-25T21:48:51.465Z,10.25
2022-10-25T21:51:20.614Z,10.40
2022-10-25T21:53:48.584Z,11.65
2022-10-25T21:56:18.107Z,10.75
2022-10-25T21:58:50.845Z,10.48
2022-10-25T22:01:24.638Z,12.73
2022-10-25T22:03:52.479Z,12.63
2022-10-25T22:06:21.851Z,11.43
2022-10-25T22:08:49.709Z,12.93
2022-10-25T22:11:20.264Z,12.48
2022-10-25T22:13:48.655Z,12.00
2022-10-25T22:16:18.677Z,12.63
2022-10-25T22:18:52.329Z,14.00
2022-10-25T22:21:20.700Z,12.35
2022-10-25T22:23:48.459Z,12.85
2022-10-25T22:26:18.840Z,11.73
2022-10-25T22:28:52.437Z,11.95
2022-10-25T22:31:21.031Z,11.90
2022-10-25T22:33:59.320Z,12.52
2022-10-25T22:36:32.401Z,15.73
2022-10-25T22:39:00.022Z,12.45
2022-10-25T22:41:29.110Z,12.68
2022-10-25T22:43:58.308Z,13.70
2022-10-25T22:46:31.286Z,13.55
2022-10-25T22:49:00.396Z,12.15
2022-10-25T22:51:28.649Z,13.57
2022-10-25T22:53:56.289Z,13.23
2022-10-25T22:56:26.080Z,12.88
2022-10-25T22:58:56.760Z,13.05
2022-10-25T23:01:26.827Z,12.82
2022-10-25T23:03:56.144Z,13.00
2022-10-25T23:06:26.242Z,13.85
2022-10-25T23:08:55.209Z,12.77
2022-10-25T23:11:28.462Z,11.88
2022-10-25T23:13:57.761Z,13.95
2022-10-25T23:16:26.146Z,11.85
2022-10-25T23:18:54.369Z,13.27
2022-10-25T23:21:24.186Z,12.00
2022-10-25T23:23:53.216Z,13.73
2022-10-25T23:26:25.430Z,13.77
2022-10-25T23:28:53.569Z,12.88
2022-10-25T23:31:21.052Z,12.82
2022-10-25T23:33:51.671Z,11.98
2022-10-25T23:36:22.137Z,12.88
2022-10-25T23:38:50.880Z,12.40
2022-10-25T23:41:20.025Z,12.95
2022-10-25T23:43:47.610Z,12.18
2022-10-25T23:46:15.294Z,11.48
2022-10-25T23:48:42.701Z,12.80
2022-10-25T23:51:12.282Z,11.98
2022-10-25T23:53:39.720Z,11.95
2022-10-25T23:56:09.159Z,12.13
2022-10-25T23:58:36.837Z,13.00
